sensor_id;sensor_type;location;lat;lon;timestamp;temperature;humidity
9041;DHT22;4555;49.918;7.012;2022-07-29T00:02:10;19.60;99.90
9041;DHT22;4555;49.918;7.012;2022-07-29T00:04:36;19.70;86.30
9041;DHT22;4555;49.918;7.012;2022-07-29T00:07:03;19.60;91.40
9041;DHT22;4555;49.918;7.012;2022-07-29T00:09:29;19.60;98.30
9041;DHT22;4555;49.918;7.012;2022-07-29T00:11:56;19.80;77.60
9041;DHT22;4555;49.918;7.012;2022-07-29T00:14:23;19.70;91.00
9041;DHT22;4555;49.918;7.012;2022-07-29T00:16:49;19.80;91.20
9041;DHT22;4555;49.918;7.012;2022-07-29T00:19:14;19.70;99.90
9041;DHT22;4555;49.918;7.012;2022-07-29T00:21:40;19.90;96.50
9041;DHT22;4555;49.918;7.012;2022-07-29T00:24:06;19.70;63.20
9041;DHT22;4555;49.918;7.012;2022-07-29T00:26:31;19.60;59.80
9041;DHT22;4555;49.918;7.012;2022-07-29T00:29:03;19.50;67.40
9041;DHT22;4555;49.918;7.012;2022-07-29T00:31:29;19.60;49.50
9041;DHT22;4555;49.918;7.012;2022-07-29T00:33:54;19.30;53.70
9041;DHT22;4555;49.918;7.012;2022-07-29T00:36:20;19.30;68.80
9041;DHT22;4555;49.918;7.012;2022-07-29T00:38:50;19.70;78.70
9041;DHT22;4555;49.918;7.012;2022-07-29T00:41:17;19.00;92.30
9041;DHT22;4555;49.918;7.012;2022-07-29T00:43:43;18.90;92.30
9041;DHT22;4555;49.918;7.012;2022-07-29T00:46:09;18.80;78.90
9041;DHT22;4555;49.918;7.012;2022-07-29T00:48:35;18.90;99.90
9041;DHT22;4555;49.918;7.012;2022-07-29T00:51:02;18.90;93.90
9041;DHT22;4555;49.918;7.012;2022-07-29T00:53:29;18.70;95.10
9041;DHT22;4555;49.918;7.012;2022-07-29T00:55:56;18.80;99.90
9041;DHT22;4555;49.918;7.012;2022-07-29T00:58:22;18.90;99.90
9041;DHT22;4555;49.918;7.012;2022-07-29T01:00:48;18.80;99.90
9041;DHT22;4555;49.918;7.012;2022-07-29T01:03:14;18.70;99.90
9041;DHT22;4555;49.918;7.012;2022-07-29T01:05:41;18.60;99.90
9041;DHT22;4555;49.918;7.012;2022-07-29T01:08:08;18.50;99.90
9041;DHT22;4555;49.918;7.012;2022-07-29T01:10:36;18.40;99.90
9041;DHT22;4555;49.918;7.012;2022-07-29T01:13:03;18.50;99.90
9041;DHT22;4555;49.918;7.012;2022-07-29T01:15:29;18.30;99.90
9041;DHT22;4555;49.918;7.012;2022-07-29T01:18:06;18.30;99.90
9041;DHT22;4555;49.918;7.012;2022-07-29T01:23:25;18.40;99.90
9041;DHT22;4555;49.918;7.012;2022-07-29T01:29:03;18.50;99.90
9041;DHT22;4555;49.918;7.012;2022-07-29T01:31:47;18.50;99.90
9041;DHT22;4555;49.918;7.012;2022-07-29T01:34:25;18.40;99.90
9041;DHT22;4555;49.918;7.012;2022-07-29T01:39:36;18.10;99.90
9041;DHT22;4555;49.918;7.012;2022-07-29T01:42:45;18.00;99.90
9041;DHT22;4555;49.918;7.012;2022-07-29T01:44:54;17.90;99.90
9041;DHT22;4555;49.918;7.012;2022-07-29T01:47:25;17.80;99.90
9041;DHT22;4555;49.918;7.012;2022-07-29T01:49:54;17.60;99.90
9041;DHT22;4555;49.918;7.012;2022-07-29T01:52:34;17.60;99.90
9041;DHT22;4555;49.918;7.012;2022-07-29T01:55:13;17.40;99.90
9041;DHT22;4555;49.918;7.012;2022-07-29T01:57:40;17.50;99.90
9041;DHT22;4555;49.918;7.012;2022-07-29T02:00:08;17.40;99.90
9041;DHT22;4555;49.918;7.012;2022-07-29T02:02:43;17.40;99.90
9041;DHT22;4555;49.918;7.012;2022-07-29T02:05:14;17.40;99.90
9041;DHT22;4555;49.918;7.012;2022-07-29T02:07:44;17.50;99.90
9041;DHT22;4555;49.918;7.012;2022-07-29T02:10:12;17.40;99.90
9041;DHT22;4555;49.918;7.012;2022-07-29T02:12:39;17.40;99.90
9041;DHT22;4555;49.918;7.012;2022-07-29T02:15:06;17.40;99.90
9041;DHT22;4555;49.918;7.012;2022-07-29T02:17:45;17.30;99.90
9041;DHT22;4555;49.918;7.012;2022-07-29T02:20:16;17.30;99.90
9041;DHT22;4555;49.918;7.012;2022-07-29T02:22:42;17.20;99.90
9041;DHT22;4555;49.918;7.012;2022-07-29T02:25:10;17.80;99.90
9041;DHT22;4555;49.918;7.012;2022-07-29T02:27:37;17.10;99.90
9041;DHT22;4555;49.918;7.012;2022-07-29T02:30:06;17.10;99.90
9041;DHT22;4555;49.918;7.012;2022-07-29T02:32:35;17.10;99.90
9041;DHT22;4555;49.918;7.012;2022-07-29T02:35:03;17.00;99.90
9041;DHT22;4555;49.918;7.012;2022-07-29T02:37:30;17.10;99.90
9041;DHT22;4555;49.918;7.012;2022-07-29T02:39:57;17.10;99.90
9041;DHT22;4555;49.918;7.012;2022-07-29T02:42:24;17.00;14.00
9041;DHT22;4555;49.918;7.012;2022-07-29T02:44:52;17.00;99.90
9041;DHT22;4555;49.918;7.012;2022-07-29T02:47:37;16.90;99.90
9041;DHT22;4555;49.918;7.012;2022-07-29T02:50:15;16.80;99.90
9041;DHT22;4555;49.918;7.012;2022-07-29T02:53:00;16.60;99.90
9041;DHT22;4555;49.918;7.012;2022-07-29T02:55:33;16.70;99.90
9041;DHT22;4555;49.918;7.012;2022-07-29T03:00:39;16.60;99.90
9041;DHT22;4555;49.918;7.012;2022-07-29T03:03:11;16.60;99.90
9041;DHT22;4555;49.918;7.012;2022-07-29T03:05:37;16.60;99.90
9041;DHT22;4555;49.918;7.012;2022-07-29T03:08:06;16.60;99.90
9041;DHT22;4555;49.918;7.012;2022-07-29T03:10:34;16.60;99.90
9041;DHT22;4555;49.918;7.012;2022-07-29T03:13:03;16.50;99.90
9041;DHT22;4555;49.918;7.012;2022-07-29T03:15:29;16.50;99.90
9041;DHT22;4555;49.918;7.012;2022-07-29T03:17:56;16.50;99.90
9041;DHT22;4555;49.918;7.012;2022-07-29T03:20:23;16.50;99.90
9041;DHT22;4555;49.918;7.012;2022-07-29T03:22:50;16.50;99.90
9041;DHT22;4555;49.918;7.012;2022-07-29T03:25:17;16.50;99.90
9041;DHT22;4555;49.918;7.012;2022-07-29T03:27:44;16.50;99.90
9041;DHT22;4555;49.918;7.012;2022-07-29T03:30:11;16.60;99.90
9041;DHT22;4555;49.918;7.012;2022-07-29T03:32:38;16.40;99.90
9041;DHT22;4555;49.918;7.012;2022-07-29T03:35:04;16.30;99.90
9041;DHT22;4555;49.918;7.012;2022-07-29T03:37:30;16.30;99.90
9041;DHT22;4555;49.918;7.012;2022-07-29T03:39:57;16.30;99.90
9041;DHT22;4555;49.918;7.012;2022-07-29T03:42:26;16.20;99.90
9041;DHT22;4555;49.918;7.012;2022-07-29T03:44:54;16.30;99.90
9041;DHT22;4555;49.918;7.012;2022-07-29T03:47:24;16.30;99.90
9041;DHT22;4555;49.918;7.012;2022-07-29T03:49:55;16.30;99.90
9041;DHT22;4555;49.918;7.012;2022-07-29T03:52:22;17.30;99.90
9041;DHT22;4555;49.918;7.012;2022-07-29T03:54:48;16.30;99.90
9041;DHT22;4555;49.918;7.012;2022-07-29T03:57:16;16.80;99.90
9041;DHT22;4555;49.918;7.012;2022-07-29T03:59:42;16.30;99.90
9041;DHT22;4555;49.918;7.012;2022-07-29T04:02:10;16.50;99.90
9041;DHT22;4555;49.918;7.012;2022-07-29T04:04:37;16.40;99.90
9041;DHT22;4555;49.918;7.012;2022-07-29T04:07:03;16.40;99.90
9041;DHT22;4555;49.918;7.012;2022-07-29T04:09:29;16.40;99.90
9041;DHT22;4555;49.918;7.012;2022-07-29T04:11:55;16.50;99.90
9041;DHT22;4555;49.918;7.012;2022-07-29T04:14:20;16.40;99.90
9041;DHT22;4555;49.918;7.012;2022-07-29T04:16:46;16.30;99.90
9041;DHT22;4555;49.918;7.012;2022-07-29T04:19:12;16.40;99.90
9041;DHT22;4555;49.918;7.012;2022-07-29T04:21:39;16.50;99.90
9041;DHT22;4555;49.918;7.012;2022-07-29T04:24:05;16.60;99.90
9041;DHT22;4555;49.918;7.012;2022-07-29T04:26:31;16.50;99.90
9041;DHT22;4555;49.918;7.012;2022-07-29T04:28:57;16.70;99.90
9041;DHT22;4555;49.918;7.012;2022-07-29T04:31:23;16.70;99.90
9041;DHT22;4555;49.918;7.012;2022-07-29T04:33:48;16.80;99.90
9041;DHT22;4555;49.918;7.012;2022-07-29T04:36:14;16.80;99.90
9041;DHT22;4555;49.918;7.012;2022-07-29T04:38:40;16.80;1.00
9041;DHT22;4555;49.918;7.012;2022-07-29T04:41:06;16.80;1.00
9041;DHT22;4555;49.918;7.012;2022-07-29T04:43:33;16.80;99.90
9041;DHT22;4555;49.918;7.012;2022-07-29T04:45:59;16.70;99.90
9041;DHT22;4555;49.918;7.012;2022-07-29T04:48:25;16.70;99.90
9041;DHT22;4555;49.918;7.012;2022-07-29T04:50:51;16.80;99.90
9041;DHT22;4555;49.918;7.012;2022-07-29T04:53:17;16.70;99.90
9041;DHT22;4555;49.918;7.012;2022-07-29T04:55:43;16.70;99.90
9041;DHT22;4555;49.918;7.012;2022-07-29T04:58:09;16.90;99.90
9041;DHT22;4555;49.918;7.012;2022-07-29T05:00:34;16.90;99.90
9041;DHT22;4555;49.918;7.012;2022-07-29T05:03:00;16.90;99.90
9041;DHT22;4555;49.918;7.012;2022-07-29T05:05:26;16.90;99.90
9041;DHT22;4555;49.918;7.012;2022-07-29T05:07:51;16.90;99.90
9041;DHT22;4555;49.918;7.012;2022-07-29T05:10:17;17.00;99.90
9041;DHT22;4555;49.918;7.012;2022-07-29T05:12:43;16.70;99.90
9041;DHT22;4555;49.918;7.012;2022-07-29T05:15:09;17.60;1.00
9041;DHT22;4555;49.918;7.012;2022-07-29T05:17:35;16.50;1.00
9041;DHT22;4555;49.918;7.012;2022-07-29T05:20:00;16.40;99.90
9041;DHT22;4555;49.918;7.012;2022-07-29T05:22:26;16.40;99.90
9041;DHT22;4555;49.918;7.012;2022-07-29T05:24:51;16.50;99.90
9041;DHT22;4555;49.918;7.012;2022-07-29T05:27:17;16.60;99.90
9041;DHT22;4555;49.918;7.012;2022-07-29T05:29:43;16.70;99.90
9041;DHT22;4555;49.918;7.012;2022-07-29T05:32:09;17.20;99.90
9041;DHT22;4555;49.918;7.012;2022-07-29T05:34:35;16.60;1.00
9041;DHT22;4555;49.918;7.012;2022-07-29T05:37:00;16.60;1.00
9041;DHT22;4555;49.918;7.012;2022-07-29T05:39:26;16.60;1.00
9041;DHT22;4555;49.918;7.012;2022-07-29T05:41:52;16.60;99.90
9041;DHT22;4555;49.918;7.012;2022-07-29T05:44:17;16.60;99.90
9041;DHT22;4555;49.918;7.012;2022-07-29T05:46:43;16.60;99.90
9041;DHT22;4555;49.918;7.012;2022-07-29T05:49:08;16.70;99.90
9041;DHT22;4555;49.918;7.012;2022-07-29T05:51:34;16.80;99.90
9041;DHT22;4555;49.918;7.012;2022-07-29T05:54:00;17.00;99.90
9041;DHT22;4555;49.918;7.012;2022-07-29T05:56:26;17.10;99.90
9041;DHT22;4555;49.918;7.012;2022-07-29T05:58:51;17.30;99.90
9041;DHT22;4555;49.918;7.012;2022-07-29T06:01:17;17.40;99.90
9041;DHT22;4555;49.918;7.012;2022-07-29T06:03:43;17.50;99.90
9041;DHT22;4555;49.918;7.012;2022-07-29T06:06:09;17.50;99.90
9041;DHT22;4555;49.918;7.012;2022-07-29T06:08:35;17.60;99.90
9041;DHT22;4555;49.918;7.012;2022-07-29T06:11:02;17.70;99.90
9041;DHT22;4555;49.918;7.012;2022-07-29T06:13:29;18.10;99.90
9041;DHT22;4555;49.918;7.012;2022-07-29T06:15:54;17.70;99.90
9041;DHT22;4555;49.918;7.012;2022-07-29T06:18:20;17.70;99.90
9041;DHT22;4555;49.918;7.012;2022-07-29T06:20:50;17.90;99.90
9041;DHT22;4555;49.918;7.012;2022-07-29T06:23:16;18.20;99.90
9041;DHT22;4555;49.918;7.012;2022-07-29T06:25:42;18.30;99.90
9041;DHT22;4555;49.918;7.012;2022-07-29T06:28:07;18.20;99.90
9041;DHT22;4555;49.918;7.012;2022-07-29T06:30:33;18.30;99.90
9041;DHT22;4555;49.918;7.012;2022-07-29T06:32:59;18.80;99.90
9041;DHT22;4555;49.918;7.012;2022-07-29T06:35:25;19.40;99.90
9041;DHT22;4555;49.918;7.012;2022-07-29T06:37:51;20.10;99.90
9041;DHT22;4555;49.918;7.012;2022-07-29T06:40:17;20.80;99.90
9041;DHT22;4555;49.918;7.012;2022-07-29T06:43:01;21.00;61.70
9041;DHT22;4555;49.918;7.012;2022-07-29T06:45:27;21.30;1.00
9041;DHT22;4555;49.918;7.012;2022-07-29T06:47:53;21.60;99.90
9041;DHT22;4555;49.918;7.012;2022-07-29T06:50:18;21.70;1.00
9041;DHT22;4555;49.918;7.012;2022-07-29T06:52:44;22.10;99.90
9041;DHT22;4555;49.918;7.012;2022-07-29T06:55:09;22.30;99.90
9041;DHT22;4555;49.918;7.012;2022-07-29T06:57:35;23.00;99.90
9041;DHT22;4555;49.918;7.012;2022-07-29T07:00:01;23.90;1.00
9041;DHT22;4555;49.918;7.012;2022-07-29T07:02:29;23.90;1.00
9041;DHT22;4555;49.918;7.012;2022-07-29T07:04:55;24.20;1.00
9041;DHT22;4555;49.918;7.012;2022-07-29T07:07:20;24.40;1.00
9041;DHT22;4555;49.918;7.012;2022-07-29T07:09:46;24.70;1.00
9041;DHT22;4555;49.918;7.012;2022-07-29T07:12:11;24.70;99.90
9041;DHT22;4555;49.918;7.012;2022-07-29T07:14:37;24.70;18.10
9041;DHT22;4555;49.918;7.012;2022-07-29T07:17:03;25.00;1.00
9041;DHT22;4555;49.918;7.012;2022-07-29T07:19:29;25.30;35.30
9041;DHT22;4555;49.918;7.012;2022-07-29T07:21:55;25.30;32.50
9041;DHT22;4555;49.918;7.012;2022-07-29T07:24:20;25.40;26.50
9041;DHT22;4555;49.918;7.012;2022-07-29T07:26:46;25.70;25.30
9041;DHT22;4555;49.918;7.012;2022-07-29T07:29:12;26.20;18.10
9041;DHT22;4555;49.918;7.012;2022-07-29T07:31:38;26.30;15.40
9041;DHT22;4555;49.918;7.012;2022-07-29T07:34:04;26.70;12.60
9041;DHT22;4555;49.918;7.012;2022-07-29T07:36:30;26.80;6.30
9041;DHT22;4555;49.918;7.012;2022-07-29T07:38:55;27.10;1.00
9041;DHT22;4555;49.918;7.012;2022-07-29T07:41:22;27.00;1.00
9041;DHT22;4555;49.918;7.012;2022-07-29T07:43:47;27.00;1.00
9041;DHT22;4555;49.918;7.012;2022-07-29T07:46:13;27.10;1.00
9041;DHT22;4555;49.918;7.012;2022-07-29T07:48:39;27.30;1.00
9041;DHT22;4555;49.918;7.012;2022-07-29T07:51:04;27.70;1.00
9041;DHT22;4555;49.918;7.012;2022-07-29T07:53:30;28.00;1.00
9041;DHT22;4555;49.918;7.012;2022-07-29T07:55:56;28.20;1.00
9041;DHT22;4555;49.918;7.012;2022-07-29T07:58:21;28.50;1.00
9041;DHT22;4555;49.918;7.012;2022-07-29T08:00:47;28.20;1.00
9041;DHT22;4555;49.918;7.012;2022-07-29T08:03:13;28.60;1.00
9041;DHT22;4555;49.918;7.012;2022-07-29T08:05:40;28.70;1.00
9041;DHT22;4555;49.918;7.012;2022-07-29T08:08:05;28.60;1.00
9041;DHT22;4555;49.918;7.012;2022-07-29T08:10:31;28.20;1.00
9041;DHT22;4555;49.918;7.012;2022-07-29T08:13:15;28.30;1.00
9041;DHT22;4555;49.918;7.012;2022-07-29T08:15:41;28.70;1.00
9041;DHT22;4555;49.918;7.012;2022-07-29T08:18:08;29.00;1.00
9041;DHT22;4555;49.918;7.012;2022-07-29T08:20:34;29.30;1.00
9041;DHT22;4555;49.918;7.012;2022-07-29T08:23:01;29.40;1.00
9041;DHT22;4555;49.918;7.012;2022-07-29T08:25:27;29.10;1.00
9041;DHT22;4555;49.918;7.012;2022-07-29T08:27:53;29.00;1.00
9041;DHT22;4555;49.918;7.012;2022-07-29T08:30:18;29.30;1.00
9041;DHT22;4555;49.918;7.012;2022-07-29T08:32:44;29.20;1.00
9041;DHT22;4555;49.918;7.012;2022-07-29T08:35:10;29.30;1.00
9041;DHT22;4555;49.918;7.012;2022-07-29T08:37:37;29.50;1.00
9041;DHT22;4555;49.918;7.012;2022-07-29T08:40:03;29.60;1.00
9041;DHT22;4555;49.918;7.012;2022-07-29T08:42:28;29.70;1.00
9041;DHT22;4555;49.918;7.012;2022-07-29T08:44:54;29.70;1.00
9041;DHT22;4555;49.918;7.012;2022-07-29T08:47:20;30.10;1.00
9041;DHT22;4555;49.918;7.012;2022-07-29T08:49:47;30.30;1.00
9041;DHT22;4555;49.918;7.012;2022-07-29T08:52:13;30.30;1.00
9041;DHT22;4555;49.918;7.012;2022-07-29T08:54:43;30.30;1.00
9041;DHT22;4555;49.918;7.012;2022-07-29T08:57:12;30.20;1.00
9041;DHT22;4555;49.918;7.012;2022-07-29T08:59:40;30.60;1.00
9041;DHT22;4555;49.918;7.012;2022-07-29T09:02:18;31.00;1.00
9041;DHT22;4555;49.918;7.012;2022-07-29T09:04:45;30.80;1.00
9041;DHT22;4555;49.918;7.012;2022-07-29T09:07:15;30.60;1.00
9041;DHT22;4555;49.918;7.012;2022-07-29T09:09:41;30.80;1.00
9041;DHT22;4555;49.918;7.012;2022-07-29T09:12:08;31.10;1.00
9041;DHT22;4555;49.918;7.012;2022-07-29T09:14:39;31.50;1.00
9041;DHT22;4555;49.918;7.012;2022-07-29T09:17:05;31.70;1.00
9041;DHT22;4555;49.918;7.012;2022-07-29T09:19:33;31.80;1.00
9041;DHT22;4555;49.918;7.012;2022-07-29T09:22:01;31.70;1.00
9041;DHT22;4555;49.918;7.012;2022-07-29T09:24:43;31.70;1.00
9041;DHT22;4555;49.918;7.012;2022-07-29T09:27:17;31.70;1.00
9041;DHT22;4555;49.918;7.012;2022-07-29T09:29:44;32.40;1.00
9041;DHT22;4555;49.918;7.012;2022-07-29T09:32:10;32.40;1.00
9041;DHT22;4555;49.918;7.012;2022-07-29T09:34:36;32.40;1.00
9041;DHT22;4555;49.918;7.012;2022-07-29T09:37:03;32.40;1.00
9041;DHT22;4555;49.918;7.012;2022-07-29T09:39:38;32.40;1.00
9041;DHT22;4555;49.918;7.012;2022-07-29T09:42:11;32.30;1.00
9041;DHT22;4555;49.918;7.012;2022-07-29T09:44:46;32.40;1.00
9041;DHT22;4555;49.918;7.012;2022-07-29T09:47:14;32.40;1.00
9041;DHT22;4555;49.918;7.012;2022-07-29T09:49:57;32.40;1.00
9041;DHT22;4555;49.918;7.012;2022-07-29T09:52:26;32.50;1.00
9041;DHT22;4555;49.918;7.012;2022-07-29T09:54:52;32.40;1.00
9041;DHT22;4555;49.918;7.012;2022-07-29T09:57:37;32.60;1.00
9041;DHT22;4555;49.918;7.012;2022-07-29T10:00:05;32.70;1.00
9041;DHT22;4555;49.918;7.012;2022-07-29T10:02:40;32.40;1.00
9041;DHT22;4555;49.918;7.012;2022-07-29T10:05:25;32.30;1.00
9041;DHT22;4555;49.918;7.012;2022-07-29T10:07:55;32.20;1.00
9041;DHT22;4555;49.918;7.012;2022-07-29T10:10:31;31.80;1.00
9041;DHT22;4555;49.918;7.012;2022-07-29T10:13:04;32.00;1.00
9041;DHT22;4555;49.918;7.012;2022-07-29T10:15:33;32.40;1.00
9041;DHT22;4555;49.918;7.012;2022-07-29T10:18:02;32.50;1.00
9041;DHT22;4555;49.918;7.012;2022-07-29T10:20:28;32.90;1.00
9041;DHT22;4555;49.918;7.012;2022-07-29T10:22:55;33.50;1.00
9041;DHT22;4555;49.918;7.012;2022-07-29T10:25:23;33.80;1.00
9041;DHT22;4555;49.918;7.012;2022-07-29T10:27:49;33.60;1.00
9041;DHT22;4555;49.918;7.012;2022-07-29T10:30:17;33.70;1.00
9041;DHT22;4555;49.918;7.012;2022-07-29T10:35:54;33.40;1.00
9041;DHT22;4555;49.918;7.012;2022-07-29T10:41:12;33.10;1.00
9041;DHT22;4555;49.918;7.012;2022-07-29T10:43:53;33.20;1.00
9041;DHT22;4555;49.918;7.012;2022-07-29T10:46:20;33.10;1.00
9041;DHT22;4555;49.918;7.012;2022-07-29T10:49:15;33.50;1.00
9041;DHT22;4555;49.918;7.012;2022-07-29T10:54:39;32.90;1.00
9041;DHT22;4555;49.918;7.012;2022-07-29T10:57:13;33.40;1.00
9041;DHT22;4555;49.918;7.012;2022-07-29T10:59:40;33.40;1.00
9041;DHT22;4555;49.918;7.012;2022-07-29T11:07:23;33.60;1.00
9041;DHT22;4555;49.918;7.012;2022-07-29T11:15:10;33.90;1.00
9041;DHT22;4555;49.918;7.012;2022-07-29T11:29:15;33.50;1.00
9041;DHT22;4555;49.918;7.012;2022-07-29T11:31:44;33.50;1.00
9041;DHT22;4555;49.918;7.012;2022-07-29T11:34:30;33.40;1.00
9041;DHT22;4555;49.918;7.012;2022-07-29T11:39:33;33.20;1.00
9041;DHT22;4555;49.918;7.012;2022-07-29T11:45:08;33.40;1.00
9041;DHT22;4555;49.918;7.012;2022-07-29T11:50:14;33.70;1.00
9041;DHT22;4555;49.918;7.012;2022-07-29T11:52:45;33.80;1.00
9041;DHT22;4555;49.918;7.012;2022-07-29T11:55:19;33.80;1.00
9041;DHT22;4555;49.918;7.012;2022-07-29T11:58:04;33.90;1.00
9041;DHT22;4555;49.918;7.012;2022-07-29T12:00:30;33.10;1.00
9041;DHT22;4555;49.918;7.012;2022-07-29T12:02:58;32.10;1.00
9041;DHT22;4555;49.918;7.012;2022-07-29T12:08:04;32.10;1.00
9041;DHT22;4555;49.918;7.012;2022-07-29T12:10:30;32.50;1.00
9041;DHT22;4555;49.918;7.012;2022-07-29T12:12:56;32.60;1.00
9041;DHT22;4555;49.918;7.012;2022-07-29T12:15:22;32.90;1.00
9041;DHT22;4555;49.918;7.012;2022-07-29T12:17:49;32.50;1.00
9041;DHT22;4555;49.918;7.012;2022-07-29T12:20:30;32.80;1.00
9041;DHT22;4555;49.918;7.012;2022-07-29T12:22:56;33.20;1.00
9041;DHT22;4555;49.918;7.012;2022-07-29T12:25:23;33.20;1.00
9041;DHT22;4555;49.918;7.012;2022-07-29T12:28:00;32.90;1.00
9041;DHT22;4555;49.918;7.012;2022-07-29T12:30:44;33.10;1.00
9041;DHT22;4555;49.918;7.012;2022-07-29T12:33:12;33.00;1.00
9041;DHT22;4555;49.918;7.012;2022-07-29T12:35:38;33.20;1.00
9041;DHT22;4555;49.918;7.012;2022-07-29T12:38:04;33.50;1.00
9041;DHT22;4555;49.918;7.012;2022-07-29T12:40:30;33.50;1.00
9041;DHT22;4555;49.918;7.012;2022-07-29T12:43:16;33.60;1.00
9041;DHT22;4555;49.918;7.012;2022-07-29T12:45:45;33.40;1.00
9041;DHT22;4555;49.918;7.012;2022-07-29T12:48:11;33.20;1.00
9041;DHT22;4555;49.918;7.012;2022-07-29T12:50:55;32.80;1.00
9041;DHT22;4555;49.918;7.012;2022-07-29T12:53:21;32.50;1.00
9041;DHT22;4555;49.918;7.012;2022-07-29T12:55:49;32.60;1.00
9041;DHT22;4555;49.918;7.012;2022-07-29T13:01:15;33.00;1.00
9041;DHT22;4555;49.918;7.012;2022-07-29T13:04:02;33.00;1.00
9041;DHT22;4555;49.918;7.012;2022-07-29T13:11:38;33.80;1.00
9041;DHT22;4555;49.918;7.012;2022-07-29T13:14:06;34.20;1.00
9041;DHT22;4555;49.918;7.012;2022-07-29T13:16:31;34.30;1.00
9041;DHT22;4555;49.918;7.012;2022-07-29T13:19:05;34.70;1.00
9041;DHT22;4555;49.918;7.012;2022-07-29T13:21:31;34.80;1.00
9041;DHT22;4555;49.918;7.012;2022-07-29T13:23:57;34.40;1.00
9041;DHT22;4555;49.918;7.012;2022-07-29T13:26:23;34.30;1.00
9041;DHT22;4555;49.918;7.012;2022-07-29T13:28:48;33.90;1.00
9041;DHT22;4555;49.918;7.012;2022-07-29T13:31:15;33.20;1.00
9041;DHT22;4555;49.918;7.012;2022-07-29T13:33:41;33.90;1.00
9041;DHT22;4555;49.918;7.012;2022-07-29T13:36:06;34.60;1.00
9041;DHT22;4555;49.918;7.012;2022-07-29T13:38:32;35.20;1.00
9041;DHT22;4555;49.918;7.012;2022-07-29T13:40:59;35.90;1.00
9041;DHT22;4555;49.918;7.012;2022-07-29T13:43:25;36.60;1.00
9041;DHT22;4555;49.918;7.012;2022-07-29T13:45:51;36.80;1.00
9041;DHT22;4555;49.918;7.012;2022-07-29T13:48:17;37.00;1.00
9041;DHT22;4555;49.918;7.012;2022-07-29T13:50:43;36.40;1.00
9041;DHT22;4555;49.918;7.012;2022-07-29T13:53:08;35.30;1.00
9041;DHT22;4555;49.918;7.012;2022-07-29T13:55:34;35.00;1.00
9041;DHT22;4555;49.918;7.012;2022-07-29T13:58:00;34.30;1.00
9041;DHT22;4555;49.918;7.012;2022-07-29T14:00:25;33.60;1.00
9041;DHT22;4555;49.918;7.012;2022-07-29T14:02:51;33.30;1.00
9041;DHT22;4555;49.918;7.012;2022-07-29T14:05:17;33.10;1.00
9041;DHT22;4555;49.918;7.012;2022-07-29T14:07:43;33.40;1.00
9041;DHT22;4555;49.918;7.012;2022-07-29T14:10:09;34.20;1.00
9041;DHT22;4555;49.918;7.012;2022-07-29T14:12:34;35.70;1.00
9041;DHT22;4555;49.918;7.012;2022-07-29T14:15:00;36.60;1.00
9041;DHT22;4555;49.918;7.012;2022-07-29T14:17:26;36.90;1.00
9041;DHT22;4555;49.918;7.012;2022-07-29T14:19:51;36.30;1.00
9041;DHT22;4555;49.918;7.012;2022-07-29T14:22:17;36.20;1.00
9041;DHT22;4555;49.918;7.012;2022-07-29T14:24:44;35.00;1.00
9041;DHT22;4555;49.918;7.012;2022-07-29T14:27:10;34.90;1.00
9041;DHT22;4555;49.918;7.012;2022-07-29T14:29:36;35.80;1.00
9041;DHT22;4555;49.918;7.012;2022-07-29T14:32:01;35.50;1.00
9041;DHT22;4555;49.918;7.012;2022-07-29T14:34:28;35.80;1.00
9041;DHT22;4555;49.918;7.012;2022-07-29T14:36:53;36.40;1.00
9041;DHT22;4555;49.918;7.012;2022-07-29T14:39:22;37.00;1.00
9041;DHT22;4555;49.918;7.012;2022-07-29T14:41:49;37.10;1.00
9041;DHT22;4555;49.918;7.012;2022-07-29T14:44:14;37.50;1.00
9041;DHT22;4555;49.918;7.012;2022-07-29T14:46:40;37.90;1.00
9041;DHT22;4555;49.918;7.012;2022-07-29T14:49:06;38.10;1.00
9041;DHT22;4555;49.918;7.012;2022-07-29T14:51:32;38.60;1.00
9041;DHT22;4555;49.918;7.012;2022-07-29T14:53:58;38.90;1.00
9041;DHT22;4555;49.918;7.012;2022-07-29T14:56:23;38.30;1.00
9041;DHT22;4555;49.918;7.012;2022-07-29T14:58:49;38.10;1.00
9041;DHT22;4555;49.918;7.012;2022-07-29T15:01:15;38.40;1.00
9041;DHT22;4555;49.918;7.012;2022-07-29T15:03:40;38.70;1.00
9041;DHT22;4555;49.918;7.012;2022-07-29T15:06:06;38.50;1.00
9041;DHT22;4555;49.918;7.012;2022-07-29T15:08:32;38.00;1.00
9041;DHT22;4555;49.918;7.012;2022-07-29T15:10:57;37.60;1.00
9041;DHT22;4555;49.918;7.012;2022-07-29T15:13:25;37.20;1.00
9041;DHT22;4555;49.918;7.012;2022-07-29T15:15:50;37.00;1.00
9041;DHT22;4555;49.918;7.012;2022-07-29T15:18:17;36.40;1.00
9041;DHT22;4555;49.918;7.012;2022-07-29T15:20:43;35.00;1.00
9041;DHT22;4555;49.918;7.012;2022-07-29T15:23:11;34.30;1.00
9041;DHT22;4555;49.918;7.012;2022-07-29T15:25:38;33.70;1.00
9041;DHT22;4555;49.918;7.012;2022-07-29T15:28:04;32.80;1.00
9041;DHT22;4555;49.918;7.012;2022-07-29T15:30:32;31.90;1.00
9041;DHT22;4555;49.918;7.012;2022-07-29T15:32:58;31.40;1.00
9041;DHT22;4555;49.918;7.012;2022-07-29T15:35:24;31.40;1.00
9041;DHT22;4555;49.918;7.012;2022-07-29T15:37:50;31.40;1.00
9041;DHT22;4555;49.918;7.012;2022-07-29T15:40:16;31.10;1.00
9041;DHT22;4555;49.918;7.012;2022-07-29T15:42:41;31.00;1.00
9041;DHT22;4555;49.918;7.012;2022-07-29T15:45:07;31.10;1.00
9041;DHT22;4555;49.918;7.012;2022-07-29T15:47:35;31.40;1.00
9041;DHT22;4555;49.918;7.012;2022-07-29T15:50:00;31.10;1.00
9041;DHT22;4555;49.918;7.012;2022-07-29T15:52:26;30.90;1.00
9041;DHT22;4555;49.918;7.012;2022-07-29T15:54:54;30.40;1.00
9041;DHT22;4555;49.918;7.012;2022-07-29T15:57:20;29.90;1.00
9041;DHT22;4555;49.918;7.012;2022-07-29T15:59:45;29.30;1.00
9041;DHT22;4555;49.918;7.012;2022-07-29T16:02:11;29.30;1.00
9041;DHT22;4555;49.918;7.012;2022-07-29T16:04:37;29.20;1.00
9041;DHT22;4555;49.918;7.012;2022-07-29T16:07:03;28.80;1.00
9041;DHT22;4555;49.918;7.012;2022-07-29T16:09:28;28.70;1.00
9041;DHT22;4555;49.918;7.012;2022-07-29T16:11:54;28.60;1.00
9041;DHT22;4555;49.918;7.012;2022-07-29T16:14:21;28.50;1.00
9041;DHT22;4555;49.918;7.012;2022-07-29T16:16:47;28.40;1.00
9041;DHT22;4555;49.918;7.012;2022-07-29T16:19:12;28.60;1.00
9041;DHT22;4555;49.918;7.012;2022-07-29T16:21:38;28.90;1.00
9041;DHT22;4555;49.918;7.012;2022-07-29T16:24:05;29.30;1.00
9041;DHT22;4555;49.918;7.012;2022-07-29T16:26:32;29.40;1.00
9041;DHT22;4555;49.918;7.012;2022-07-29T16:28:58;29.30;1.00
9041;DHT22;4555;49.918;7.012;2022-07-29T16:31:24;28.90;1.00
9041;DHT22;4555;49.918;7.012;2022-07-29T16:33:51;28.80;1.00
9041;DHT22;4555;49.918;7.012;2022-07-29T16:36:17;28.70;1.00
9041;DHT22;4555;49.918;7.012;2022-07-29T16:38:44;28.50;1.00
9041;DHT22;4555;49.918;7.012;2022-07-29T16:41:09;28.20;1.00
9041;DHT22;4555;49.918;7.012;2022-07-29T16:43:35;28.20;1.00
9041;DHT22;4555;49.918;7.012;2022-07-29T16:46:00;28.20;1.00
9041;DHT22;4555;49.918;7.012;2022-07-29T16:48:26;28.20;1.00
9041;DHT22;4555;49.918;7.012;2022-07-29T16:50:52;28.20;1.00
9041;DHT22;4555;49.918;7.012;2022-07-29T16:53:17;28.30;1.00
9041;DHT22;4555;49.918;7.012;2022-07-29T16:55:43;28.30;1.00
9041;DHT22;4555;49.918;7.012;2022-07-29T16:58:10;28.10;1.00
9041;DHT22;4555;49.918;7.012;2022-07-29T17:00:36;27.80;1.00
9041;DHT22;4555;49.918;7.012;2022-07-29T17:03:02;27.70;1.00
9041;DHT22;4555;49.918;7.012;2022-07-29T17:05:27;27.40;1.00
9041;DHT22;4555;49.918;7.012;2022-07-29T17:07:53;27.10;1.00
9041;DHT22;4555;49.918;7.012;2022-07-29T17:10:19;27.20;1.00
9041;DHT22;4555;49.918;7.012;2022-07-29T17:12:46;27.10;1.00
9041;DHT22;4555;49.918;7.012;2022-07-29T17:15:12;27.10;1.00
9041;DHT22;4555;49.918;7.012;2022-07-29T17:17:38;27.10;1.00